Bookmark and Share
Track history (hours):
 

Gaschem Phoenix

Last reported at 2014-Apr-16 03:03 UTC. Time now 2014-Apr-17 03:57 UTC.
Position N 31°41' E 121°11'.

Length 100 m; draft 4.8 m.

Type: Tanker. MMSI: 636090235.

NotesDate/timePositionNaut miles runAvg speedWind from/ knotsBaromVisibWave heightAir tempDewpointWater temp
2014-Apr-16 03:03N 31°41' E 121°11'1013.2
2014-Apr-16 02:19N 31°46' E 121°02'912.0
2014-Apr-16 01:33N 31°52' E 120°53'1212.2
2014-Apr-16 00:34N 32°00' E 120°43'1414.3
2014-Apr-15 23:33N 32°02' E 120°27'1211.5
2014-Apr-15 22:33N 31°56' E 120°15'4 3.6
2014-Apr-15 21:31N 31°56' E 120°10'0 0.0
2014-Apr-15 20:33N 31°56' E 120°10'0 0.0
2014-Apr-15 19:30N 31°56' E 120°10'0 0.2
2014-Apr-15 18:29N 31°56' E 120°11'0 0.0
2014-Apr-15 17:32N 31°56' E 120°11'0 0.0
2014-Apr-15 16:31N 31°56' E 120°11'0 0.0
2014-Apr-15 15:28N 31°56' E 120°11'0 0.1
2014-Apr-15 14:30N 31°56' E 120°10'0 0.0
2014-Apr-15 12:34N 31°56' E 120°10'0 0.1
2014-Apr-15 11:33N 31°56' E 120°10'0 0.1
2014-Apr-15 10:33N 31°56' E 120°10'0 0.1
2014-Apr-15 09:32N 31°56' E 120°10'1 1.0
2014-Apr-15 08:34N 31°56' E 120°09'6 0.2
2014-Apr-14 06:33N 31°58' E 120°03'1212.4
2014-Apr-14 05:34N 31°57' E 120°17'58 8.3
2014-Apr-13 22:33N 31°35' E 121°20'0 0.0
2014-Apr-13 18:07N 31°35' E 121°20'0 0.0
2014-Apr-13 16:30N 31°35' E 121°20'0 0.0
2014-Apr-13 14:18N 31°35' E 121°20'0 0.0
2014-Apr-13 09:25N 31°35' E 121°20'7 7.5
2014-Apr-13 08:32N 31°30' E 121°26'7 7.3
2014-Apr-13 07:33N 31°25' E 121°32'5 5.4
2014-Apr-13 06:34N 31°22' E 121°37'6 5.6
2014-Apr-13 05:31N 31°19' E 121°43'7 7.3
2014-Apr-13 04:33N 31°14' E 121°48'  
2014-Apr-10 13:03N 31°48' E 132°42'612.0
2014-Apr-10 12:31N 31°50' E 132°48'1211.5
2014-Apr-10 11:30N 31°56' E 133°01'1110.8
2014-Apr-10 10:28N 32°00' E 133°12'1010.6
2014-Apr-10 09:30N 32°05' E 133°23'34811.2
2014-Apr-09 02:32N 34°56' E 139°26'1212.7
2014-Apr-09 01:33N 35°02' E 139°40'1212.4
2014-Apr-09 00:33N 35°13' E 139°46'1211.8
2014-Apr-08 23:33N 35°24' E 139°43'1212.2
2014-Apr-08 22:33N 35°31' E 139°55'7 0.4
2014-Apr-08 05:33N 35°32' E 140°03'6 5.6
2014-Apr-08 04:32N 35°34' E 139°57'0 0.0
2014-Apr-08 03:20N 35°34' E 139°57'0 0.0
2014-Apr-08 02:31N 35°34' E 139°57'0 0.0
2014-Apr-08 01:10N 35°34' E 139°57'0 0.0
2014-Apr-08 00:30N 35°34' E 139°57'0 0.0
2014-Apr-07 23:30N 35°34' E 139°57'0 0.0
2014-Apr-07 22:33N 35°34' E 139°57'0 0.0
2014-Apr-07 21:23N 35°34' E 139°57'0 0.0
2014-Apr-07 20:32N 35°34' E 139°57'0 0.0
2014-Apr-07 19:31N 35°34' E 139°57'0 0.0
2014-Apr-07 17:33N 35°34' E 139°57'0 0.1
2014-Apr-07 16:33N 35°34' E 139°57'0 0.0
2014-Apr-07 15:32N 35°34' E 139°57'0 0.0
2014-Apr-07 14:32N 35°34' E 139°57'0 0.0
2014-Apr-07 13:32N 35°34' E 139°57'0 0.1
2014-Apr-07 12:31N 35°34' E 139°57'0 0.0
2014-Apr-07 11:25N 35°34' E 139°57'0 0.0
2014-Apr-07 10:30N 35°34' E 139°57'0 0.0
2014-Apr-07 09:30N 35°34' E 139°57'0 0.0
2014-Apr-07 08:29N 35°34' E 139°57'0 0.0
2014-Apr-07 07:32N 35°34' E 139°57'0 0.0
2014-Apr-07 06:29N 35°34' E 139°57'0 0.0
2014-Apr-07 05:30N 35°34' E 139°57'0 0.0
2014-Apr-07 04:28N 35°34' E 139°57'0 0.0
2014-Apr-07 03:30N 35°34' E 139°57'0 0.1
2014-Apr-07 02:33N 35°34' E 139°57'0 0.1
2014-Apr-07 01:32N 35°34' E 139°57'0 0.0
2014-Apr-07 00:32N 35°34' E 139°57'0 0.0
2014-Apr-06 23:32N 35°34' E 139°57'0 0.1
2014-Apr-06 22:31N 35°34' E 139°57'6 6.0
2014-Apr-06 21:33N 35°29' E 139°53'1211.6
2014-Apr-06 20:33N 35°20' E 139°44'1010.1
2014-Apr-06 19:33N 35°10' E 139°46'7 7.0
2014-Apr-06 18:33N 35°03' E 139°42'7 7.4
2014-Apr-06 17:33N 34°59' E 139°35'8 7.4
2014-Apr-06 16:33N 34°56' E 139°27'  

Dump ship's entire track history

sailing weather and tide predictions

Gaschem Phoenix — ELUO6 — position and weather